createdAt,value
2019-06-08T00:00:00.190Z,19.13
2019-06-08T00:02:32.430Z,19.13
2019-06-08T00:05:07.092Z,19.16
2019-06-08T00:07:40.342Z,19.19
2019-06-08T00:10:12.937Z,19.21
2019-06-08T00:12:45.222Z,19.19
2019-06-08T00:15:18.627Z,19.16
2019-06-08T00:17:51.099Z,19.16
2019-06-08T00:20:23.798Z,19.23
2019-06-08T00:22:56.187Z,19.25
2019-06-08T00:25:28.566Z,19.28
2019-06-08T00:28:01.464Z,19.31
2019-06-08T00:30:35.258Z,19.36
2019-06-08T00:33:07.948Z,19.42
2019-06-08T00:35:40.232Z,19.36
2019-06-08T00:38:12.579Z,19.34
2019-06-08T00:40:45.639Z,19.33
2019-06-08T00:43:19.063Z,19.33
2019-06-08T00:45:51.738Z,19.33
2019-06-08T00:48:24.829Z,19.35
2019-06-08T00:50:58.462Z,19.37
2019-06-08T00:53:30.773Z,19.43
2019-06-08T00:56:03.122Z,19.49
2019-06-08T00:58:36.056Z,19.45
2019-06-08T01:01:08.818Z,19.48
2019-06-08T01:03:41.372Z,19.51
2019-06-08T01:06:14.660Z,19.42
2019-06-08T01:08:47.107Z,19.46
2019-06-08T01:11:20.814Z,19.43
2019-06-08T01:13:54.622Z,19.33
2019-06-08T01:16:27.264Z,19.30
2019-06-08T01:18:59.575Z,19.25
2019-06-08T01:21:32.049Z,19.20
2019-06-08T01:24:04.686Z,19.17
2019-06-08T01:26:37.157Z,19.17
2019-06-08T01:29:09.631Z,19.17
2019-06-08T01:31:41.863Z,19.09
2019-06-08T01:34:14.175Z,19.00
2019-06-08T01:36:46.480Z,18.88
2019-06-08T01:39:18.882Z,18.79
2019-06-08T01:41:51.417Z,18.78
2019-06-08T01:44:25.679Z,18.63
2019-06-08T01:46:58.229Z,18.35
2019-06-08T01:49:30.716Z,18.34
2019-06-08T01:52:03.183Z,18.31
2019-06-08T01:54:35.457Z,18.39
2019-06-08T01:57:08.839Z,18.45
2019-06-08T01:59:41.200Z,18.56
2019-06-08T02:02:14.858Z,18.83
2019-06-08T02:04:47.387Z,19.15
2019-06-08T02:07:20.005Z,19.40
2019-06-08T02:09:52.613Z,19.49
2019-06-08T02:12:25.134Z,19.43
2019-06-08T02:14:57.673Z,19.41
2019-06-08T02:17:31.291Z,19.45
2019-06-08T02:20:05.517Z,19.50
2019-06-08T02:22:39.290Z,19.61
2019-06-08T02:25:13.815Z,19.75
2019-06-08T02:27:46.275Z,20.05
2019-06-08T02:30:19.666Z,20.73
2019-06-08T02:32:52.093Z,21.72
2019-06-08T02:35:24.433Z,22.70
2019-06-08T02:37:56.781Z,23.45
2019-06-08T02:40:30.294Z,23.89
2019-06-08T02:43:03.523Z,24.05
2019-06-08T02:45:37.058Z,24.32
2019-06-08T02:48:10.447Z,24.68
2019-06-08T02:50:57.346Z,25.12
2019-06-08T02:53:32.159Z,25.47
2019-06-08T02:56:05.450Z,25.82
2019-06-08T02:58:40.762Z,26.30
2019-06-08T03:01:15.171Z,26.75
2019-06-08T03:03:49.651Z,27.02
2019-06-08T03:06:22.093Z,27.49
2019-06-08T03:08:57.605Z,28.10
2019-06-08T03:11:32.551Z,28.49
2019-06-08T03:14:05.185Z,29.06
2019-06-08T03:16:39.001Z,29.56
2019-06-08T03:19:21.610Z,30.20
2019-06-08T03:21:46.034Z,31.18
2019-06-08T03:24:20.029Z,32.09
2019-06-08T03:26:55.314Z,32.58
2019-06-08T03:29:27.756Z,32.52
2019-06-08T03:32:00.378Z,31.98
2019-06-08T03:34:35.561Z,31.85
2019-06-08T03:37:07.614Z,31.50
2019-06-08T03:39:41.306Z,30.92
2019-06-08T03:42:14.290Z,30.74
2019-06-08T03:44:47.402Z,30.76
2019-06-08T03:47:19.927Z,30.80
2019-06-08T03:49:57.381Z,31.20
2019-06-08T03:52:26.651Z,31.31
2019-06-08T03:54:59.120Z,31.45
2019-06-08T03:57:31.717Z,31.30
2019-06-08T04:00:12.918Z,30.84
2019-06-08T04:02:44.802Z,30.77
2019-06-08T04:05:17.086Z,30.91
2019-06-08T04:07:50.497Z,31.04
2019-06-08T04:10:23.208Z,31.35
2019-06-08T04:12:55.636Z,31.35
2019-06-08T04:15:28.088Z,31.11
2019-06-08T04:18:01.831Z,31.30
2019-06-08T04:20:37.961Z,31.50
2019-06-08T04:23:10.976Z,31.41
2019-06-08T04:25:45.013Z,31.59
2019-06-08T04:28:17.691Z,31.52
2019-06-08T04:30:50.218Z,31.00
2019-06-08T04:33:23.234Z,31.02
2019-06-08T04:35:58.659Z,30.87
2019-06-08T04:38:30.966Z,31.11
2019-06-08T04:41:03.510Z,30.95
2019-06-08T04:43:35.834Z,30.88
2019-06-08T04:46:08.179Z,31.01
2019-06-08T04:48:40.690Z,30.79
2019-06-08T04:51:13.975Z,30.09
2019-06-08T04:53:47.182Z,30.44
2019-06-08T04:56:33.554Z,30.35
2019-06-08T04:59:06.735Z,30.62
2019-06-08T05:01:40.893Z,30.80
2019-06-08T05:04:13.864Z,31.49
2019-06-08T05:06:47.227Z,32.11
2019-06-08T05:09:20.779Z,32.13
2019-06-08T05:11:57.855Z,31.96
2019-06-08T05:14:31.063Z,32.10
2019-06-08T05:17:05.352Z,32.20
2019-06-08T05:19:39.255Z,32.39
2019-06-08T05:22:12.569Z,32.54
2019-06-08T05:24:45.611Z,32.54
2019-06-08T05:27:18.247Z,32.72
2019-06-08T05:29:50.704Z,33.23
2019-06-08T05:32:23.293Z,33.02
2019-06-08T05:34:55.844Z,32.99
2019-06-08T05:37:33.090Z,33.21
2019-06-08T05:40:07.234Z,33.56
2019-06-08T05:42:42.126Z,33.46
2019-06-08T05:45:14.329Z,33.95
2019-06-08T05:47:47.930Z,34.33
2019-06-08T05:50:21.263Z,34.78
2019-06-08T05:52:53.678Z,34.39
2019-06-08T05:55:26.253Z,34.18
2019-06-08T05:57:58.718Z,34.49
2019-06-08T06:00:31.040Z,34.93
2019-06-08T06:03:03.652Z,34.71
2019-06-08T06:05:36.081Z,34.82
2019-06-08T06:08:18.282Z,34.55
2019-06-08T06:10:44.778Z,34.75
2019-06-08T06:13:18.176Z,34.36
2019-06-08T06:15:51.694Z,34.23
2019-06-08T06:18:24.408Z,34.05
2019-06-08T06:21:10.368Z,33.97
2019-06-08T06:23:31.465Z,34.60
2019-06-08T06:26:03.826Z,34.92
2019-06-08T06:28:36.193Z,34.30
2019-06-08T06:31:08.620Z,33.61
2019-06-08T06:33:41.978Z,33.46
2019-06-08T06:36:15.017Z,33.11
2019-06-08T06:38:48.269Z,32.92
2019-06-08T06:41:20.891Z,33.36
2019-06-08T06:43:53.184Z,32.88
2019-06-08T06:46:25.646Z,32.45
2019-06-08T06:48:58.069Z,31.57
2019-06-08T06:51:30.494Z,30.94
2019-06-08T06:54:03.229Z,31.08
2019-06-08T06:56:35.608Z,30.85
2019-06-08T06:59:07.973Z,30.35
2019-06-08T07:01:40.419Z,30.14
2019-06-08T07:04:14.969Z,30.16
2019-06-08T07:06:48.118Z,30.26
2019-06-08T07:09:21.465Z,30.27
2019-06-08T07:11:56.181Z,30.14
2019-06-08T07:14:27.947Z,30.36
2019-06-08T07:17:01.818Z,30.66
2019-06-08T07:19:34.719Z,30.68
2019-06-08T07:22:07.262Z,30.72
2019-06-08T07:24:39.830Z,30.89
2019-06-08T07:27:12.169Z,31.20
2019-06-08T07:29:47.100Z,31.77
2019-06-08T07:32:20.218Z,32.55
2019-06-08T07:34:53.147Z,33.22
2019-06-08T07:37:28.361Z,33.98
2019-06-08T07:40:00.711Z,34.99
2019-06-08T07:42:33.038Z,35.34
2019-06-08T07:45:07.680Z,35.92
2019-06-08T07:47:40.205Z,36.30
2019-06-08T07:50:15.026Z,35.08
2019-06-08T07:52:49.506Z,34.32
2019-06-08T07:55:22.531Z,34.19
2019-06-08T07:57:56.203Z,34.62
2019-06-08T08:00:28.736Z,34.88
2019-06-08T08:03:01.115Z,36.04
2019-06-08T08:05:34.471Z,36.15
2019-06-08T08:08:06.838Z,35.55
2019-06-08T08:10:39.204Z,35.62
2019-06-08T08:13:13.115Z,36.52
2019-06-08T08:15:45.651Z,36.91
2019-06-08T08:18:17.983Z,36.97
2019-06-08T08:20:51.075Z,37.04
2019-06-08T08:23:23.515Z,36.71
2019-06-08T08:25:57.923Z,36.50
2019-06-08T08:28:30.073Z,36.59
2019-06-08T08:31:03.826Z,36.24
2019-06-08T08:33:37.970Z,36.35
2019-06-08T08:36:10.708Z,36.62
2019-06-08T08:38:43.292Z,36.68
2019-06-08T08:41:18.189Z,37.23
2019-06-08T08:43:51.320Z,36.28
2019-06-08T08:46:23.876Z,35.70
2019-06-08T08:49:05.957Z,35.37
2019-06-08T08:51:30.910Z,35.38
2019-06-08T08:54:05.480Z,36.00
2019-06-08T08:56:38.607Z,36.08
2019-06-08T08:59:12.273Z,36.50
2019-06-08T09:01:48.291Z,37.28
2019-06-08T09:04:20.943Z,37.07
2019-06-08T09:06:53.566Z,36.83
2019-06-08T09:09:28.848Z,37.31
2019-06-08T09:12:04.165Z,37.59
2019-06-08T09:14:34.826Z,37.06
2019-06-08T09:17:08.933Z,36.98
2019-06-08T09:19:41.368Z,37.21
2019-06-08T09:22:14.233Z,37.57
2019-06-08T09:24:48.565Z,37.18
2019-06-08T09:27:20.725Z,36.67
2019-06-08T09:29:53.780Z,36.34
2019-06-08T09:32:28.724Z,36.70
2019-06-08T09:35:04.624Z,36.14
2019-06-08T09:37:37.547Z,35.77
2019-06-08T09:40:10.854Z,36.10
2019-06-08T09:42:43.200Z,36.67
2019-06-08T09:45:18.039Z,37.66
2019-06-08T09:47:51.372Z,37.92
2019-06-08T09:50:23.782Z,37.38
2019-06-08T09:53:10.128Z,37.59
2019-06-08T09:55:32.647Z,37.98
2019-06-08T09:58:09.516Z,37.85
2019-06-08T10:00:39.468Z,37.58
2019-06-08T10:03:12.432Z,37.68
2019-06-08T10:05:45.033Z,37.42
2019-06-08T10:08:20.212Z,38.12
2019-06-08T10:10:54.397Z,38.08
2019-06-08T10:13:28.018Z,36.61
2019-06-08T10:16:03.589Z,36.69
2019-06-08T10:18:35.673Z,37.60
2019-06-08T10:21:09.905Z,37.27
2019-06-08T10:23:43.567Z,35.22
2019-06-08T10:26:17.811Z,34.33
2019-06-08T10:28:51.240Z,33.18
2019-06-08T10:31:38.334Z,32.65
2019-06-08T10:34:01.824Z,32.32
2019-06-08T10:36:32.702Z,32.30
2019-06-08T10:39:11.519Z,32.07
2019-06-08T10:41:41.490Z,32.36
2019-06-08T10:44:14.578Z,32.89
2019-06-08T10:46:48.577Z,33.13
2019-06-08T10:49:21.054Z,32.82
2019-06-08T10:51:53.601Z,32.91
2019-06-08T10:54:27.749Z,33.16
2019-06-08T10:57:02.557Z,33.58
2019-06-08T10:59:36.593Z,33.47
2019-06-08T11:02:13.704Z,33.23
2019-06-08T11:04:43.912Z,33.04
2019-06-08T11:07:16.698Z,32.77
2019-06-08T11:09:51.365Z,32.59
2019-06-08T11:12:23.660Z,32.67
2019-06-08T11:14:58.437Z,32.75
2019-06-08T11:17:31.748Z,32.85
2019-06-08T11:20:11.180Z,33.08
2019-06-08T11:22:41.049Z,33.47
2019-06-08T11:25:16.662Z,33.41
2019-06-08T11:27:50.120Z,33.30
2019-06-08T11:30:27.153Z,33.24
2019-06-08T11:32:57.813Z,33.13
2019-06-08T11:35:31.069Z,33.41
2019-06-08T11:38:04.153Z,33.42
2019-06-08T11:40:39.784Z,33.41
2019-06-08T11:43:12.171Z,33.15
2019-06-08T11:45:44.866Z,32.81
2019-06-08T11:48:18.252Z,33.02
2019-06-08T11:50:53.126Z,33.01
2019-06-08T11:53:25.631Z,33.09
2019-06-08T11:55:58.642Z,33.33
2019-06-08T11:58:33.371Z,33.43
2019-06-08T12:01:13.719Z,33.63
2019-06-08T12:03:49.248Z,33.32
2019-06-08T12:06:23.697Z,33.26
2019-06-08T12:08:57.361Z,33.29
2019-06-08T12:11:33.695Z,33.45
2019-06-08T12:14:10.797Z,33.61
2019-06-08T12:16:42.830Z,33.70
2019-06-08T12:19:20.339Z,33.41
2019-06-08T12:21:52.512Z,33.44
2019-06-08T12:24:41.060Z,33.16
2019-06-08T12:27:10.198Z,33.02
2019-06-08T12:29:36.684Z,33.04
2019-06-08T12:32:10.802Z,32.99
2019-06-08T12:34:43.020Z,32.90
2019-06-08T12:37:21.307Z,32.86
2019-06-08T12:39:49.700Z,32.98
2019-06-08T12:42:24.893Z,33.04
2019-06-08T12:44:58.630Z,33.27
2019-06-08T12:47:31.705Z,33.55
2019-06-08T12:50:05.362Z,33.93
2019-06-08T12:52:42.986Z,34.21
2019-06-08T12:55:19.977Z,34.17
2019-06-08T12:57:51.550Z,34.03
2019-06-08T13:00:24.855Z,34.10
2019-06-08T13:02:58.129Z,34.29
2019-06-08T13:05:30.842Z,34.61
2019-06-08T13:08:04.088Z,34.71
2019-06-08T13:10:38.169Z,34.39
2019-06-08T13:13:12.794Z,34.16
2019-06-08T13:15:48.365Z,34.01
2019-06-08T13:18:21.445Z,33.87
2019-06-08T13:20:54.106Z,33.83
2019-06-08T13:23:28.295Z,33.72
2019-06-08T13:26:00.718Z,33.77
2019-06-08T13:28:33.155Z,33.79
2019-06-08T13:31:07.904Z,33.95
2019-06-08T13:33:39.681Z,33.92
2019-06-08T13:36:12.355Z,33.66
2019-06-08T13:38:44.879Z,33.50
2019-06-08T13:41:20.242Z,33.25
2019-06-08T13:43:51.727Z,33.33
2019-06-08T13:46:24.004Z,33.60
2019-06-08T13:48:58.363Z,33.79
2019-06-08T13:51:30.436Z,33.84
2019-06-08T13:54:03.943Z,33.73
2019-06-08T13:56:38.476Z,33.77
2019-06-08T13:59:10.750Z,33.53
2019-06-08T14:01:47.704Z,33.15
2019-06-08T14:04:21.048Z,33.09
2019-06-08T14:06:53.963Z,32.91
2019-06-08T14:09:28.420Z,32.85
2019-06-08T14:12:00.373Z,32.80
2019-06-08T14:14:34.633Z,32.78
2019-06-08T14:17:08.489Z,32.88
2019-06-08T14:19:42.546Z,32.84
2019-06-08T14:22:18.326Z,32.80
2019-06-08T14:24:51.104Z,32.75
2019-06-08T14:27:23.549Z,32.69
2019-06-08T14:29:58.289Z,32.60
2019-06-08T14:32:31.390Z,32.10
2019-06-08T14:35:03.833Z,31.71
2019-06-08T14:37:38.137Z,31.41
2019-06-08T14:40:10.812Z,31.35
2019-06-08T14:42:45.345Z,31.16
2019-06-08T14:45:19.240Z,31.13
2019-06-08T14:47:51.929Z,31.17
2019-06-08T14:50:24.522Z,31.20
2019-06-08T14:52:59.087Z,31.21
2019-06-08T14:55:34.262Z,31.10
2019-06-08T14:58:08.282Z,31.04
2019-06-08T15:00:40.255Z,30.84
2019-06-08T15:03:12.648Z,30.79
2019-06-08T15:05:45.060Z,30.66
2019-06-08T15:08:17.673Z,30.54
2019-06-08T15:10:52.105Z,30.25
2019-06-08T15:13:26.228Z,29.85
2019-06-08T15:16:00.713Z,29.79
2019-06-08T15:18:34.340Z,29.76
2019-06-08T15:21:07.940Z,29.64
2019-06-08T15:23:40.611Z,29.55
2019-06-08T15:26:28.165Z,29.41
2019-06-08T15:28:52.736Z,29.18
2019-06-08T15:31:25.213Z,28.78
2019-06-08T15:34:01.344Z,28.67
2019-06-08T15:36:32.830Z,28.41
2019-06-08T15:39:08.824Z,28.14
2019-06-08T15:41:41.252Z,27.90
2019-06-08T15:44:13.832Z,27.78
2019-06-08T15:46:48.878Z,27.76
2019-06-08T15:49:22.175Z,27.82
2019-06-08T15:51:55.019Z,27.88
2019-06-08T15:54:33.590Z,27.88
2019-06-08T15:57:02.618Z,27.78
2019-06-08T15:59:40.030Z,27.58
2019-06-08T16:02:10.858Z,27.42
2019-06-08T16:04:43.357Z,27.32
2019-06-08T16:07:16.511Z,27.31
2019-06-08T16:09:51.363Z,27.35
2019-06-08T16:12:26.209Z,27.40
2019-06-08T16:14:58.719Z,27.41
2019-06-08T16:17:31.267Z,27.36
2019-06-08T16:20:04.396Z,27.23
2019-06-08T16:22:38.149Z,27.17
2019-06-08T16:25:10.637Z,27.12
2019-06-08T16:27:43.092Z,27.06
2019-06-08T16:30:16.320Z,26.99
2019-06-08T16:32:48.923Z,26.94
2019-06-08T16:35:21.775Z,26.95
2019-06-08T16:37:54.359Z,26.96
2019-06-08T16:40:27.691Z,26.90
2019-06-08T16:42:59.955Z,26.81
2019-06-08T16:45:33.146Z,26.74
2019-06-08T16:48:05.822Z,26.56
2019-06-08T16:50:38.547Z,26.44
2019-06-08T16:53:11.196Z,26.38
2019-06-08T16:55:45.083Z,26.29
2019-06-08T16:58:17.387Z,26.18
2019-06-08T17:00:50.066Z,26.05
2019-06-08T17:03:22.535Z,25.97
2019-06-08T17:05:54.974Z,25.91
2019-06-08T17:08:27.383Z,25.79
2019-06-08T17:11:00.840Z,25.67
2019-06-08T17:13:34.097Z,25.49
2019-06-08T17:16:06.542Z,25.36
2019-06-08T17:18:40.260Z,25.16
2019-06-08T17:21:13.755Z,25.05
2019-06-08T17:23:46.431Z,24.98
2019-06-08T17:26:20.807Z,24.88
2019-06-08T17:28:54.107Z,24.83
2019-06-08T17:31:27.031Z,24.68
2019-06-08T17:33:59.782Z,24.57
2019-06-08T17:36:32.630Z,24.55
2019-06-08T17:39:07.151Z,24.45
2019-06-08T17:41:40.477Z,24.43
2019-06-08T17:44:14.248Z,24.42
2019-06-08T17:46:47.821Z,24.29
2019-06-08T17:49:21.222Z,24.07
2019-06-08T17:51:54.570Z,23.96
2019-06-08T17:54:27.545Z,23.70
2019-06-08T17:57:00.824Z,23.46
2019-06-08T17:59:35.305Z,23.25
2019-06-08T18:02:13.726Z,23.09
2019-06-08T18:04:44.528Z,22.96
2019-06-08T18:07:17.694Z,22.92
2019-06-08T18:09:50.697Z,22.83
2019-06-08T18:12:23.642Z,22.72
2019-06-08T18:14:57.992Z,22.67
2019-06-08T18:17:31.321Z,22.68
2019-06-08T18:20:07.768Z,22.73
2019-06-08T18:22:42.803Z,22.64
2019-06-08T18:25:17.418Z,22.51
2019-06-08T18:28:05.549Z,22.47
2019-06-08T18:30:27.635Z,22.43
2019-06-08T18:33:01.322Z,22.21
2019-06-08T18:35:37.368Z,22.09
2019-06-08T18:38:12.931Z,22.04
2019-06-08T18:40:48.316Z,22.08
2019-06-08T18:43:30.613Z,22.10
2019-06-08T18:46:07.064Z,22.22
2019-06-08T18:48:42.143Z,22.25
2019-06-08T18:51:18.009Z,22.20
2019-06-08T18:54:07.232Z,22.24
2019-06-08T18:56:28.255Z,22.22
2019-06-08T18:59:02.647Z,22.13
2019-06-08T19:01:39.093Z,22.03
2019-06-08T19:04:12.072Z,21.88
2019-06-08T19:06:50.117Z,21.80
2019-06-08T19:09:24.777Z,21.72
2019-06-08T19:11:58.762Z,21.70
2019-06-08T19:14:34.403Z,21.69
2019-06-08T19:17:11.177Z,21.71
2019-06-08T19:19:48.456Z,21.74
2019-06-08T19:22:20.266Z,21.78
2019-06-08T19:24:53.920Z,21.79
2019-06-08T19:27:27.751Z,21.77
2019-06-08T19:30:02.893Z,21.71
2019-06-08T19:32:41.877Z,21.70
2019-06-08T19:35:18.410Z,21.62
2019-06-08T19:37:53.671Z,21.62
2019-06-08T19:40:27.172Z,21.66
2019-06-08T19:43:03.548Z,21.62
2019-06-08T19:45:40.270Z,21.45
2019-06-08T19:48:17.389Z,21.31
2019-06-08T19:50:54.262Z,21.19
2019-06-08T19:53:28.637Z,21.19
2019-06-08T19:56:01.398Z,21.31
2019-06-08T19:58:50.062Z,21.33
2019-06-08T20:01:11.727Z,21.30
2019-06-08T20:03:46.979Z,21.33
2019-06-08T20:06:21.191Z,21.37
2019-06-08T20:08:57.564Z,21.28
2019-06-08T20:11:34.045Z,21.26
2019-06-08T20:14:08.048Z,21.28
2019-06-08T20:16:42.712Z,21.34
2019-06-08T20:19:17.979Z,21.33
2019-06-08T20:21:53.447Z,21.30
2019-06-08T20:24:27.960Z,21.27
2019-06-08T20:27:00.843Z,21.25
2019-06-08T20:29:33.449Z,21.17
2019-06-08T20:32:08.470Z,21.18
2019-06-08T20:34:42.437Z,21.13
2019-06-08T20:37:17.524Z,21.04
2019-06-08T20:40:05.800Z,21.12
2019-06-08T20:42:24.062Z,21.12
2019-06-08T20:44:57.820Z,21.16
2019-06-08T20:47:30.479Z,21.17
2019-06-08T20:50:02.997Z,21.18
2019-06-08T20:52:37.767Z,21.18
2019-06-08T20:55:10.494Z,21.15
2019-06-08T20:57:43.134Z,21.14
2019-06-08T21:00:16.021Z,21.07
2019-06-08T21:02:50.315Z,21.01
2019-06-08T21:05:22.313Z,20.91
2019-06-08T21:07:58.884Z,20.89
2019-06-08T21:10:30.842Z,20.88
2019-06-08T21:13:07.143Z,20.86
2019-06-08T21:15:39.148Z,20.82
2019-06-08T21:18:12.194Z,20.81
2019-06-08T21:20:47.172Z,20.76
2019-06-08T21:23:19.937Z,20.75
2019-06-08T21:25:54.071Z,20.67
2019-06-08T21:28:28.087Z,20.58
2019-06-08T21:31:02.146Z,20.48
2019-06-08T21:33:37.835Z,20.42
2019-06-08T21:36:10.192Z,20.36
2019-06-08T21:38:54.958Z,20.32
2019-06-08T21:41:24.733Z,20.25
2019-06-08T21:44:00.772Z,20.26
2019-06-08T21:46:31.564Z,20.27
2019-06-08T21:49:04.105Z,20.26
2019-06-08T21:51:39.832Z,20.29
2019-06-08T21:54:12.406Z,20.35
2019-06-08T21:56:44.915Z,20.38
2019-06-08T21:59:18.196Z,20.43
2019-06-08T22:01:53.044Z,20.51
2019-06-08T22:04:27.548Z,20.47
2019-06-08T22:07:01.449Z,20.44
2019-06-08T22:09:33.603Z,20.42
2019-06-08T22:12:07.195Z,20.29
2019-06-08T22:14:39.849Z,20.22
2019-06-08T22:17:16.045Z,20.17
2019-06-08T22:19:48.700Z,20.16
2019-06-08T22:22:21.217Z,20.20
2019-06-08T22:24:55.428Z,20.20
2019-06-08T22:27:28.035Z,20.21
2019-06-08T22:30:01.316Z,20.25
2019-06-08T22:32:38.496Z,20.22
2019-06-08T22:35:13.157Z,20.23
2019-06-08T22:37:47.914Z,20.19
2019-06-08T22:40:20.084Z,20.02
2019-06-08T22:42:52.594Z,20.00
2019-06-08T22:45:25.156Z,19.99
2019-06-08T22:48:00.446Z,19.93
2019-06-08T22:50:31.811Z,19.95
2019-06-08T22:53:07.817Z,19.96
2019-06-08T22:55:39.989Z,20.05
2019-06-08T22:58:13.857Z,20.15
2019-06-08T23:00:52.701Z,20.26
2019-06-08T23:03:20.736Z,20.34
2019-06-08T23:05:54.801Z,20.38
2019-06-08T23:08:27.554Z,20.39
2019-06-08T23:11:02.009Z,20.36
2019-06-08T23:13:34.172Z,20.39
2019-06-08T23:16:08.845Z,20.40
2019-06-08T23:18:40.904Z,20.43
2019-06-08T23:21:13.303Z,20.48
2019-06-08T23:23:47.655Z,20.55
2019-06-08T23:26:20.202Z,20.55
2019-06-08T23:28:52.752Z,20.53
2019-06-08T23:31:28.424Z,20.58
2019-06-08T23:34:01.970Z,20.70
2019-06-08T23:36:48.416Z,20.82
2019-06-08T23:39:10.079Z,20.89
2019-06-08T23:41:42.369Z,21.13
2019-06-08T23:44:14.668Z,21.19
2019-06-08T23:46:48.427Z,21.24
2019-06-08T23:49:21.571Z,21.26
2019-06-08T23:51:58.132Z,21.27
2019-06-08T23:54:30.255Z,21.27
2019-06-08T23:57:04.892Z,21.19
2019-06-08T23:59:38.954Z,21.08
